createdAt,value
2016-07-27T00:00:45.663Z,18.03
2016-07-27T00:01:45.667Z,17.93
2016-07-27T00:02:45.668Z,17.98
2016-07-27T00:03:45.675Z,18
2016-07-27T00:04:45.673Z,18.02
2016-07-27T00:05:45.676Z,18.08
2016-07-27T00:06:45.676Z,18.09
2016-07-27T00:07:45.676Z,18.11
2016-07-27T00:08:45.680Z,18.13
2016-07-27T00:09:45.680Z,18.12
2016-07-27T00:10:45.680Z,18.13
2016-07-27T00:11:45.685Z,18.08
2016-07-27T00:12:45.684Z,18.16
2016-07-27T00:13:45.684Z,18.18
2016-07-27T00:14:45.689Z,18.12
2016-07-27T00:15:45.688Z,18.11
2016-07-27T00:16:44.976Z,18.12
2016-07-27T00:17:45.693Z,18.11
2016-07-27T00:18:45.693Z,18.13
2016-07-27T00:19:45.697Z,18.08
2016-07-27T00:20:45.696Z,18.12
2016-07-27T00:21:45.701Z,18.15
2016-07-27T00:22:45.701Z,18.15
2016-07-27T00:23:45.700Z,18.12
2016-07-27T00:24:45.705Z,18.09
2016-07-27T00:25:45.704Z,18.02
2016-07-27T00:26:45.721Z,18.02
2016-07-27T00:27:45.709Z,18.02
2016-07-27T00:28:45.708Z,18.03
2016-07-27T00:29:45.708Z,17.91
2016-07-27T00:30:45.712Z,17.93
2016-07-27T00:31:45.713Z,17.87
2016-07-27T00:32:45.717Z,17.78
2016-07-27T00:33:45.717Z,17.82
2016-07-27T00:34:45.717Z,17.69
2016-07-27T00:35:45.720Z,17.71
2016-07-27T00:36:45.721Z,17.73
2016-07-27T00:37:45.721Z,17.59
2016-07-27T00:38:45.724Z,17.65
2016-07-27T00:39:45.726Z,17.54
2016-07-27T00:40:45.729Z,17.54
2016-07-27T00:41:45.729Z,17.39
2016-07-27T00:42:45.729Z,17.47
2016-07-27T00:43:45.737Z,17.44
2016-07-27T00:44:45.733Z,17.47
2016-07-27T00:45:45.737Z,17.42
2016-07-27T00:46:45.738Z,17.41
2016-07-27T00:47:45.734Z,17.46
2016-07-27T00:48:45.741Z,17.38
2016-07-27T00:49:45.740Z,17.38
2016-07-27T00:50:45.741Z,17.35
2016-07-27T00:51:45.745Z,17.42
2016-07-27T00:52:45.740Z,17.42
2016-07-27T00:53:45.745Z,17.38
2016-07-27T00:54:45.750Z,17.39
2016-07-27T00:55:45.749Z,17.3
2016-07-27T00:56:45.745Z,17.38
2016-07-27T00:57:45.748Z,17.37
2016-07-27T00:58:45.753Z,17.37
2016-07-27T00:59:45.753Z,17.31
2016-07-27T01:00:45.752Z,17.37
2016-07-27T01:01:45.756Z,17.38
2016-07-27T01:02:45.760Z,17.35
2016-07-27T01:03:45.761Z,17.34
2016-07-27T01:04:45.040Z,17.34
2016-07-27T01:05:45.765Z,17.28
2016-07-27T01:06:45.765Z,17.22
2016-07-27T01:07:45.759Z,17.22
2016-07-27T01:08:45.768Z,17.17
2016-07-27T01:09:45.764Z,17.13
2016-07-27T01:10:45.769Z,17.1
2016-07-27T01:11:45.772Z,17.12
2016-07-27T01:12:45.772Z,17.23
2016-07-27T01:13:45.768Z,17.22
2016-07-27T01:14:45.776Z,17.23
2016-07-27T01:15:45.776Z,17.22
2016-07-27T01:16:45.776Z,17.24
2016-07-27T01:17:45.781Z,17.31
2016-07-27T01:18:45.780Z,17.23
2016-07-27T01:19:45.785Z,17.27
2016-07-27T01:20:45.784Z,17.32
2016-07-27T01:21:45.785Z,17.23
2016-07-27T01:22:45.789Z,17.3
2016-07-27T01:23:45.789Z,17.27
2016-07-27T01:24:45.788Z,17.32
2016-07-27T01:25:45.792Z,17.24
2016-07-27T01:26:45.793Z,17.24
2016-07-27T01:27:45.791Z,17.2
2016-07-27T01:28:45.796Z,17.31
2016-07-27T01:29:45.796Z,17.3
2016-07-27T01:30:45.801Z,17.31
2016-07-27T01:31:45.805Z,17.3
2016-07-27T01:32:45.800Z,17.31
2016-07-27T01:33:45.805Z,17.35
2016-07-27T01:34:45.801Z,17.28
2016-07-27T01:35:45.805Z,17.27
2016-07-27T01:36:45.804Z,17.23
2016-07-27T01:37:45.813Z,17.28
2016-07-27T01:38:45.808Z,17.16
2016-07-27T01:39:45.813Z,17.12
2016-07-27T01:40:45.813Z,17.14
2016-07-27T01:41:45.812Z,17.16
2016-07-27T01:42:45.813Z,17.04
2016-07-27T01:43:45.817Z,17.07
2016-07-27T01:44:45.818Z,17.1
2016-07-27T01:45:45.869Z,16.98
2016-07-27T01:46:45.822Z,16.94
2016-07-27T01:47:45.821Z,16.95
2016-07-27T01:48:45.825Z,16.97
2016-07-27T01:49:45.825Z,16.97
2016-07-27T01:50:45.825Z,17.02
2016-07-27T01:51:45.829Z,16.99
2016-07-27T01:52:45.829Z,16.99
2016-07-27T01:53:45.829Z,17.04
2016-07-27T01:54:45.833Z,17.01
2016-07-27T01:55:45.833Z,17.05
2016-07-27T01:56:45.833Z,17.05
2016-07-27T01:57:45.838Z,17.05
2016-07-27T01:58:45.837Z,17.05
2016-07-27T01:59:45.841Z,17.13
2016-07-27T02:00:45.841Z,17.02
2016-07-27T02:01:45.842Z,17.16
2016-07-27T02:02:45.845Z,17.1
2016-07-27T02:03:45.846Z,17.2
2016-07-27T02:04:45.846Z,17.09
2016-07-27T02:05:45.851Z,17.14
2016-07-27T02:06:45.856Z,17.14
2016-07-27T02:07:45.850Z,17.1
2016-07-27T02:08:45.851Z,17.14
2016-07-27T02:09:45.854Z,17.19
2016-07-27T02:10:45.855Z,17.02
2016-07-27T02:11:45.854Z,17.02
2016-07-27T02:12:45.859Z,17.13
2016-07-27T02:13:45.855Z,16.98
2016-07-27T02:14:45.858Z,17.05
2016-07-27T02:15:45.863Z,17.07
2016-07-27T02:16:45.862Z,17.14
2016-07-27T02:17:45.870Z,17.07
2016-07-27T02:18:45.866Z,16.97
2016-07-27T02:19:45.866Z,16.92
2016-07-27T02:20:45.871Z,17.02
2016-07-27T02:21:45.875Z,16.92
2016-07-27T02:22:45.871Z,16.87
2016-07-27T02:23:45.866Z,17.02
2016-07-27T02:24:45.875Z,16.94
2016-07-27T02:25:45.874Z,17.02
2016-07-27T02:26:45.875Z,16.98
2016-07-27T02:27:45.879Z,16.92
2016-07-27T02:28:45.874Z,16.87
2016-07-27T02:29:45.879Z,16.91
2016-07-27T02:30:45.883Z,16.89
2016-07-27T02:31:45.879Z,16.86
2016-07-27T02:32:45.883Z,16.74
2016-07-27T02:33:45.887Z,16.72
2016-07-27T02:34:45.887Z,16.76
2016-07-27T02:35:45.887Z,16.73
2016-07-27T02:36:45.891Z,16.77
2016-07-27T02:37:45.892Z,16.84
2016-07-27T02:38:45.892Z,16.74
2016-07-27T02:39:45.895Z,16.79
2016-07-27T02:40:45.172Z,16.72
2016-07-27T02:41:45.904Z,16.74
2016-07-27T02:42:45.900Z,16.8
2016-07-27T02:43:45.900Z,16.83
2016-07-27T02:44:45.900Z,16.82
2016-07-27T02:45:46.004Z,16.77
2016-07-27T02:46:45.904Z,16.74
2016-07-27T02:47:45.905Z,16.74
2016-07-27T02:48:45.904Z,16.8
2016-07-27T02:49:45.909Z,16.73
2016-07-27T02:50:45.908Z,16.83
2016-07-27T02:52:45.912Z,16.74
2016-07-27T02:53:45.912Z,16.68
2016-07-27T02:54:45.912Z,16.73
2016-07-27T02:55:45.197Z,16.66
2016-07-27T02:56:45.917Z,16.72
2016-07-27T02:57:45.925Z,16.73
2016-07-27T02:58:45.916Z,16.62
2016-07-27T02:59:45.922Z,16.69
2016-07-27T03:00:45.921Z,16.59
2016-07-27T03:01:45.925Z,16.58
2016-07-27T03:02:45.926Z,16.68
2016-07-27T03:03:45.925Z,16.66
2016-07-27T03:04:45.926Z,16.72
2016-07-27T03:05:45.929Z,16.57
2016-07-27T03:07:45.930Z,16.62
2016-07-27T03:08:45.934Z,16.61
2016-07-27T03:09:45.934Z,16.55
2016-07-27T03:10:45.934Z,16.55
2016-07-27T03:11:45.938Z,16.54
2016-07-27T03:12:45.946Z,16.51
2016-07-27T03:13:45.938Z,16.5
2016-07-27T03:14:45.938Z,16.55
2016-07-27T03:15:45.942Z,16.54
2016-07-27T03:16:45.951Z,16.54
2016-07-27T03:17:45.942Z,16.54
2016-07-27T03:18:45.946Z,16.46
2016-07-27T03:19:45.946Z,16.5
2016-07-27T03:20:45.954Z,16.55
2016-07-27T03:21:45.947Z,16.41
2016-07-27T03:22:45.946Z,16.47
2016-07-27T03:23:45.951Z,16.58
2016-07-27T03:24:45.947Z,16.55
2016-07-27T03:25:45.955Z,16.54
2016-07-27T03:26:45.955Z,16.59
2016-07-27T03:27:45.954Z,16.55
2016-07-27T03:28:45.959Z,16.5
2016-07-27T03:29:45.954Z,16.55
2016-07-27T03:30:45.243Z,16.47
2016-07-27T03:31:45.963Z,16.55
2016-07-27T03:32:45.963Z,16.54
2016-07-27T03:33:45.963Z,16.55
2016-07-27T03:34:45.967Z,16.59
2016-07-27T03:35:45.967Z,16.54
2016-07-27T03:36:45.963Z,16.55
2016-07-27T03:37:45.971Z,16.62
2016-07-27T03:38:45.971Z,16.59
2016-07-27T03:39:45.971Z,16.58
2016-07-27T03:40:45.975Z,16.57
2016-07-27T03:41:45.975Z,16.55
2016-07-27T03:42:45.976Z,16.55
2016-07-27T03:43:45.975Z,16.64
2016-07-27T03:44:45.995Z,16.61
2016-07-27T03:45:45.980Z,16.72
2016-07-27T03:46:45.980Z,16.69
2016-07-27T03:47:45.984Z,16.74
2016-07-27T03:48:45.985Z,16.74
2016-07-27T03:49:45.983Z,16.72
2016-07-27T03:50:45.984Z,16.74
2016-07-27T03:51:46.036Z,16.76
2016-07-27T03:52:45.988Z,16.79
2016-07-27T03:53:45.989Z,16.76
2016-07-27T03:54:45.988Z,16.74
2016-07-27T03:55:45.993Z,16.73
2016-07-27T03:56:45.993Z,16.73
2016-07-27T03:57:45.993Z,16.68
2016-07-27T03:58:45.997Z,16.76
2016-07-27T03:59:45.998Z,16.69
2016-07-27T04:00:45.997Z,16.82
2016-07-27T04:01:45.278Z,16.77
2016-07-27T04:02:46.002Z,16.77
2016-07-27T04:03:46.001Z,16.8
2016-07-27T04:04:46.002Z,16.8
2016-07-27T04:05:46.005Z,16.87
2016-07-27T04:06:46.005Z,16.72
2016-07-27T04:07:46.021Z,16.84
2016-07-27T04:08:46.009Z,16.91
2016-07-27T04:09:46.010Z,16.84
2016-07-27T04:10:46.009Z,16.87
2016-07-27T04:11:46.022Z,16.94
2016-07-27T04:12:46.013Z,16.95
2016-07-27T04:13:46.018Z,16.98
2016-07-27T04:14:46.014Z,17.1
2016-07-27T04:15:46.014Z,17.09
2016-07-27T04:16:46.018Z,17.12
2016-07-27T04:17:46.013Z,17.1
2016-07-27T04:18:46.022Z,17.1
2016-07-27T04:19:46.025Z,17.16
2016-07-27T04:20:46.022Z,17.16
2016-07-27T04:21:46.022Z,17.27
2016-07-27T04:22:46.026Z,17.27
2016-07-27T04:23:46.030Z,17.27
2016-07-27T04:24:46.025Z,17.27
2016-07-27T04:25:46.030Z,17.31
2016-07-27T04:26:46.026Z,17.39
2016-07-27T04:27:46.030Z,17.41
2016-07-27T04:28:46.031Z,17.56
2016-07-27T04:29:46.034Z,17.86
2016-07-27T04:30:46.034Z,18.18
2016-07-27T04:31:46.034Z,18.33
2016-07-27T04:32:46.039Z,18.51
2016-07-27T04:33:46.034Z,18.61
2016-07-27T04:34:46.050Z,18.64
2016-07-27T04:35:46.039Z,18.71
2016-07-27T04:36:46.038Z,18.67
2016-07-27T04:37:46.043Z,18.73
2016-07-27T04:38:46.038Z,18.67
2016-07-27T04:39:46.043Z,18.66
2016-07-27T04:40:46.043Z,18.67
2016-07-27T04:41:46.047Z,18.68
2016-07-27T04:42:45.327Z,18.85
2016-07-27T04:43:46.162Z,18.81
2016-07-27T04:44:46.051Z,18.86
2016-07-27T04:45:46.102Z,18.88
2016-07-27T04:46:46.051Z,18.88
2016-07-27T04:47:46.055Z,18.92
2016-07-27T04:48:46.055Z,18.91
2016-07-27T04:49:46.055Z,18.96
2016-07-27T04:50:46.059Z,18.89
2016-07-27T04:51:46.059Z,18.85
2016-07-27T04:52:46.059Z,18.92
2016-07-27T04:53:46.059Z,18.85
2016-07-27T04:54:46.063Z,18.74
2016-07-27T04:55:46.063Z,18.83
2016-07-27T04:56:45.343Z,18.78
2016-07-27T04:57:46.066Z,18.85
2016-07-27T04:58:46.067Z,18.79
2016-07-27T04:59:46.070Z,18.79
2016-07-27T05:00:46.067Z,18.83
2016-07-27T05:01:46.070Z,19.05
2016-07-27T05:02:46.067Z,19.07
2016-07-27T05:03:46.075Z,19.11
2016-07-27T05:04:45.350Z,19.24
2016-07-27T05:05:46.075Z,19.29
2016-07-27T05:06:46.074Z,19.37
2016-07-27T05:07:46.079Z,19.24
2016-07-27T05:08:46.079Z,19.27
2016-07-27T05:09:46.079Z,19.37
2016-07-27T05:10:46.083Z,19.47
2016-07-27T05:11:46.083Z,19.42
2016-07-27T05:12:46.083Z,19.48
2016-07-27T05:13:46.083Z,19.45
2016-07-27T05:14:46.087Z,19.52
2016-07-27T05:15:46.095Z,19.52
2016-07-27T05:16:46.090Z,19.48
2016-07-27T05:17:46.092Z,19.41
2016-07-27T05:18:45.371Z,19.42
2016-07-27T05:19:46.092Z,19.52
2016-07-27T05:20:46.096Z,19.63
2016-07-27T05:21:46.095Z,19.6
2016-07-27T05:22:46.096Z,19.59
2016-07-27T05:23:46.099Z,19.74
2016-07-27T05:24:46.100Z,19.67
2016-07-27T05:25:46.099Z,19.77
2016-07-27T05:26:46.104Z,19.75
2016-07-27T05:27:46.103Z,19.81
2016-07-27T05:28:46.104Z,19.84
2016-07-27T05:29:46.104Z,19.93
2016-07-27T05:30:46.108Z,19.96
2016-07-27T05:31:46.109Z,20.08
2016-07-27T05:32:46.107Z,20
2016-07-27T05:33:46.112Z,20.08
2016-07-27T05:34:46.103Z,20.14
2016-07-27T05:35:46.260Z,20.14
2016-07-27T05:36:46.115Z,20.17
2016-07-27T05:37:46.116Z,20.17
2016-07-27T05:38:46.116Z,20.11
2016-07-27T05:39:46.107Z,20.21
2016-07-27T05:40:46.132Z,20.21
2016-07-27T05:41:46.121Z,20.24
2016-07-27T05:42:46.124Z,20.22
2016-07-27T05:43:46.124Z,20.37
2016-07-27T05:44:46.124Z,20.52
2016-07-27T05:45:46.124Z,20.63
2016-07-27T05:46:46.124Z,20.71
2016-07-27T05:47:46.128Z,20.95
2016-07-27T05:48:46.128Z,21.19
2016-07-27T05:49:46.132Z,21.25
2016-07-27T05:50:46.132Z,21.45
2016-07-27T05:51:45.408Z,21.74
2016-07-27T05:52:46.132Z,22.22
2016-07-27T05:53:46.137Z,22.65
2016-07-27T05:54:46.136Z,22.99
2016-07-27T05:55:46.141Z,23.14
2016-07-27T05:56:46.140Z,23.04
2016-07-27T05:57:46.140Z,22.98
2016-07-27T05:58:46.140Z,22.95
2016-07-27T05:59:46.140Z,22.83
2016-07-27T06:00:45.424Z,22.78
2016-07-27T06:01:46.144Z,22.78
2016-07-27T06:02:46.148Z,22.99
2016-07-27T06:03:46.160Z,23.17
2016-07-27T06:04:46.153Z,23.36
2016-07-27T06:05:46.153Z,23.37
2016-07-27T06:06:46.153Z,23.33
2016-07-27T06:07:46.152Z,23.36
2016-07-27T06:08:46.153Z,23.2
2016-07-27T06:09:46.156Z,23.06
2016-07-27T06:10:46.168Z,23.01
2016-07-27T06:11:46.160Z,23.02
2016-07-27T06:12:46.160Z,22.88
2016-07-27T06:13:46.169Z,22.77
2016-07-27T06:14:46.160Z,22.78
2016-07-27T06:15:46.166Z,22.88
2016-07-27T06:16:46.169Z,22.92
2016-07-27T06:17:46.169Z,22.93
2016-07-27T06:18:46.176Z,22.88
2016-07-27T06:19:46.169Z,22.98
2016-07-27T06:20:46.176Z,22.98
2016-07-27T06:21:46.172Z,22.95
2016-07-27T06:22:46.169Z,23.11
2016-07-27T06:23:46.172Z,23.34
2016-07-27T06:24:46.177Z,23.36
2016-07-27T06:25:46.176Z,23.52
2016-07-27T06:26:46.181Z,23.55
2016-07-27T06:27:45.461Z,23.7
2016-07-27T06:28:46.184Z,24.01
2016-07-27T06:29:46.180Z,24.13
2016-07-27T06:30:46.185Z,24.37
2016-07-27T06:31:46.185Z,24.62
2016-07-27T06:32:46.185Z,24.66
2016-07-27T06:33:46.188Z,24.78
2016-07-27T06:34:46.189Z,24.94
2016-07-27T06:35:46.189Z,25.39
2016-07-27T06:36:46.199Z,26.08
2016-07-27T06:37:46.193Z,26.66
2016-07-27T06:38:46.197Z,26.85
2016-07-27T06:39:46.197Z,26.92
2016-07-27T06:40:46.197Z,26.96
2016-07-27T06:41:46.201Z,26.89
2016-07-27T06:42:46.201Z,26.83
2016-07-27T06:43:46.205Z,26.92
2016-07-27T06:44:46.206Z,27.01
2016-07-27T06:45:46.209Z,26.89
2016-07-27T06:46:46.205Z,26.93
2016-07-27T06:47:46.209Z,27.18
2016-07-27T06:48:46.209Z,27.76
2016-07-27T06:49:46.209Z,28.27
2016-07-27T06:50:46.213Z,28.57
2016-07-27T06:51:46.214Z,28.78
2016-07-27T06:52:46.214Z,28.75
2016-07-27T06:53:46.218Z,28.74
2016-07-27T06:54:46.218Z,28.59
2016-07-27T06:55:46.222Z,28.57
2016-07-27T06:56:46.222Z,28.55
2016-07-27T06:57:46.222Z,28.47
2016-07-27T06:58:46.226Z,28.35
2016-07-27T06:59:46.226Z,28.23
2016-07-27T07:00:46.226Z,27.91
2016-07-27T07:01:46.230Z,27.82
2016-07-27T07:02:46.230Z,27.64
2016-07-27T07:03:46.230Z,27.48
2016-07-27T07:04:46.234Z,27.26
2016-07-27T07:05:46.233Z,27.37
2016-07-27T07:06:46.234Z,27.45
2016-07-27T07:07:46.237Z,27.75
2016-07-27T07:08:46.242Z,28.1
2016-07-27T07:09:46.238Z,28.4
2016-07-27T07:10:46.243Z,28.72
2016-07-27T07:11:46.242Z,28.84
2016-07-27T07:12:46.242Z,28.86
2016-07-27T07:13:46.246Z,28.72
2016-07-27T07:14:46.246Z,28.68
2016-07-27T07:15:46.250Z,28.46
2016-07-27T07:16:45.531Z,28.25
2016-07-27T07:17:46.251Z,28.25
2016-07-27T07:18:46.255Z,28.12
2016-07-27T07:19:46.251Z,28.09
2016-07-27T07:20:46.259Z,28.25
2016-07-27T07:21:46.267Z,28.5
2016-07-27T07:22:46.258Z,28.87
2016-07-27T07:23:46.263Z,29.06
2016-07-27T07:24:46.270Z,29.15
2016-07-27T07:25:46.269Z,29.32
2016-07-27T07:26:46.272Z,29.12
2016-07-27T07:27:46.267Z,29.05
2016-07-27T07:28:45.551Z,29.02
2016-07-27T07:29:46.270Z,29.15
2016-07-27T07:30:46.276Z,29.2
2016-07-27T07:31:46.275Z,29.34
2016-07-27T07:32:46.275Z,29.49
2016-07-27T07:33:46.275Z,29.67
2016-07-27T07:34:46.279Z,29.65
2016-07-27T07:35:46.279Z,29.58
2016-07-27T07:36:46.279Z,29.42
2016-07-27T07:37:46.283Z,29.53
2016-07-27T07:38:46.283Z,29.59
2016-07-27T07:39:46.287Z,29.65
2016-07-27T07:40:46.287Z,29.8
2016-07-27T07:41:46.288Z,30.1
2016-07-27T07:42:46.292Z,30.61
2016-07-27T07:43:46.291Z,31.15
2016-07-27T07:44:46.296Z,31.62
2016-07-27T07:45:46.295Z,31.66
2016-07-27T07:46:46.300Z,31.82
2016-07-27T07:47:46.300Z,31.79
2016-07-27T07:48:46.305Z,31.64
2016-07-27T07:49:46.304Z,31.57
2016-07-27T07:50:46.304Z,31.51
2016-07-27T07:51:45.583Z,31.22
2016-07-27T07:52:46.308Z,30.96
2016-07-27T07:53:46.311Z,30.69
2016-07-27T07:54:46.308Z,30.36
2016-07-27T07:55:46.311Z,29.99
2016-07-27T07:56:46.312Z,29.79
2016-07-27T07:57:46.316Z,29.59
2016-07-27T07:58:46.316Z,29.42
2016-07-27T07:59:46.320Z,29.3
2016-07-27T08:00:46.320Z,29.32
2016-07-27T08:01:46.324Z,29.2
2016-07-27T08:02:46.323Z,29.06
2016-07-27T08:03:46.328Z,29.07
2016-07-27T08:04:46.328Z,29.13
2016-07-27T08:05:46.328Z,29.2
2016-07-27T08:06:45.612Z,29.47
2016-07-27T08:07:46.332Z,29.73
2016-07-27T08:08:46.336Z,29.9
2016-07-27T08:09:46.336Z,30.01
2016-07-27T08:10:45.419Z,30.11
2016-07-27T08:11:46.344Z,30.18
2016-07-27T08:12:46.341Z,30.21
2016-07-27T08:13:46.360Z,30.31
2016-07-27T08:14:46.345Z,30.14
2016-07-27T08:15:46.348Z,30.26
2016-07-27T08:16:46.350Z,30.17
2016-07-27T08:17:46.352Z,30.08
2016-07-27T08:18:46.357Z,29.84
2016-07-27T08:19:46.360Z,29.64
2016-07-27T08:20:46.356Z,29.31
2016-07-27T08:21:46.357Z,28.94
2016-07-27T08:22:46.360Z,28.67
2016-07-27T08:23:46.361Z,28.46
2016-07-27T08:24:46.364Z,28.27
2016-07-27T08:25:46.364Z,28.03
2016-07-27T08:26:46.372Z,27.79
2016-07-27T08:27:46.368Z,27.47
2016-07-27T08:28:46.368Z,27.25
2016-07-27T08:29:46.376Z,27.07
2016-07-27T08:30:46.376Z,26.88
2016-07-27T08:31:46.380Z,26.78
2016-07-27T08:32:46.376Z,26.66
2016-07-27T08:33:46.381Z,26.67
2016-07-27T08:34:46.386Z,26.73
2016-07-27T08:35:46.381Z,26.68
2016-07-27T08:36:46.388Z,26.78
2016-07-27T08:37:45.924Z,26.91
2016-07-27T08:38:46.392Z,27.01
2016-07-27T08:39:46.388Z,27.26
2016-07-27T08:40:46.393Z,27.55
2016-07-27T08:41:45.673Z,27.85
2016-07-27T08:42:46.392Z,28.03
2016-07-27T08:43:46.396Z,28.27
2016-07-27T08:44:46.401Z,28.38
2016-07-27T08:45:46.405Z,28.59
2016-07-27T08:46:46.402Z,28.78
2016-07-27T08:47:46.405Z,28.97
2016-07-27T08:48:46.403Z,29.21
2016-07-27T08:49:46.408Z,29.22
2016-07-27T08:50:46.408Z,29.39
2016-07-27T08:51:46.413Z,29.43
2016-07-27T08:52:46.413Z,29.59
2016-07-27T08:53:46.421Z,29.71
2016-07-27T08:54:45.696Z,29.84
2016-07-27T08:55:46.420Z,29.76
2016-07-27T08:56:46.420Z,29.92
2016-07-27T08:57:46.420Z,29.9
2016-07-27T08:58:46.424Z,30.11
2016-07-27T08:59:46.425Z,30.16
2016-07-27T09:00:46.429Z,29.96
2016-07-27T09:01:46.429Z,29.57
2016-07-27T09:02:46.432Z,29.27
2016-07-27T09:03:46.433Z,28.94
2016-07-27T09:04:46.437Z,28.56
2016-07-27T09:05:46.437Z,28.33
2016-07-27T09:06:46.444Z,28.06
2016-07-27T09:07:46.441Z,27.93
2016-07-27T09:08:46.441Z,27.63
2016-07-27T09:09:46.446Z,27.52
2016-07-27T09:10:46.445Z,27.33
2016-07-27T09:11:46.449Z,27.03
2016-07-27T09:12:46.449Z,26.89
2016-07-27T09:13:46.473Z,26.71
2016-07-27T09:14:46.457Z,26.56
2016-07-27T09:15:46.457Z,26.41
2016-07-27T09:16:46.458Z,26.31
2016-07-27T09:17:46.467Z,26.18
2016-07-27T09:18:46.461Z,25.95
2016-07-27T09:19:46.461Z,25.74
2016-07-27T09:20:46.466Z,25.76
2016-07-27T09:21:46.469Z,25.49
2016-07-27T09:22:45.545Z,25.43
2016-07-27T09:23:46.469Z,25.37
2016-07-27T09:24:46.473Z,25.21
2016-07-27T09:25:46.474Z,25.12
2016-07-27T09:26:46.478Z,24.96
2016-07-27T09:27:46.477Z,24.94
2016-07-27T09:28:46.481Z,24.99
2016-07-27T09:29:46.481Z,25.04
2016-07-27T09:30:46.485Z,25.07
2016-07-27T09:31:46.485Z,25.06
2016-07-27T09:32:46.490Z,25.16
2016-07-27T09:33:46.489Z,25.22
2016-07-27T09:34:46.489Z,25.29
2016-07-27T09:35:46.497Z,25.34
2016-07-27T09:36:46.493Z,25.37
2016-07-27T09:37:46.497Z,25.58
2016-07-27T09:38:46.497Z,25.81
2016-07-27T09:39:46.502Z,26.07
2016-07-27T09:40:46.500Z,26.27
2016-07-27T09:41:46.505Z,26.61
2016-07-27T09:42:46.504Z,26.83
2016-07-27T09:43:46.510Z,27.16
2016-07-27T09:44:46.509Z,27.75
2016-07-27T09:45:46.813Z,28.2
2016-07-27T09:46:46.513Z,28.65
2016-07-27T09:47:46.517Z,29.21
2016-07-27T09:48:46.517Z,29.42
2016-07-27T09:49:46.525Z,29.83
2016-07-27T09:50:46.529Z,30.14
2016-07-27T09:51:46.541Z,30.44
2016-07-27T09:52:46.527Z,30.67
2016-07-27T09:53:46.529Z,30.8
2016-07-27T09:54:46.529Z,30.83
2016-07-27T09:55:46.533Z,30.74
2016-07-27T09:56:46.533Z,30.78
2016-07-27T09:57:46.538Z,30.74
2016-07-27T09:58:46.538Z,30.61
2016-07-27T09:59:46.538Z,30.43
2016-07-27T10:00:46.546Z,30.39
2016-07-27T10:01:46.541Z,30.24
2016-07-27T10:02:46.546Z,30.18
2016-07-27T10:03:46.550Z,29.95
2016-07-27T10:04:46.550Z,29.92
2016-07-27T10:05:46.558Z,29.59
2016-07-27T10:06:46.554Z,29.44
2016-07-27T10:07:46.570Z,29.18
2016-07-27T10:08:46.559Z,28.97
2016-07-27T10:09:46.563Z,28.77
2016-07-27T10:10:46.562Z,28.6
2016-07-27T10:11:46.567Z,28.5
2016-07-27T10:12:46.566Z,28.31
2016-07-27T10:13:46.570Z,28.37
2016-07-27T10:14:46.571Z,28.27
2016-07-27T10:15:45.855Z,28.27
2016-07-27T10:16:45.859Z,28.31
2016-07-27T10:17:46.578Z,28.31
2016-07-27T10:18:46.579Z,28.31
2016-07-27T10:19:46.587Z,28.37
2016-07-27T10:20:46.587Z,28.35
2016-07-27T10:21:46.587Z,28.45
2016-07-27T10:22:46.586Z,28.45
2016-07-27T10:23:46.591Z,28.57
2016-07-27T10:24:46.591Z,28.65
2016-07-27T10:25:46.595Z,28.57
2016-07-27T10:26:46.595Z,28.65
2016-07-27T10:27:46.599Z,28.71
2016-07-27T10:28:46.599Z,28.75
2016-07-27T10:29:46.603Z,28.74
2016-07-27T10:30:46.608Z,28.74
2016-07-27T10:31:46.607Z,28.8
2016-07-27T10:32:46.610Z,28.87
2016-07-27T10:33:46.612Z,28.92
2016-07-27T10:34:46.615Z,29.09
2016-07-27T10:35:46.616Z,29.25
2016-07-27T10:36:46.619Z,29.35
2016-07-27T10:37:46.619Z,29.61
2016-07-27T10:38:46.623Z,29.87
2016-07-27T10:39:46.624Z,29.92
2016-07-27T10:40:46.627Z,29.96
2016-07-27T10:41:46.632Z,30.1
2016-07-27T10:42:46.639Z,30.32
2016-07-27T10:43:46.636Z,30.61
2016-07-27T10:44:46.634Z,30.88
2016-07-27T10:45:46.640Z,31.07
2016-07-27T10:46:46.640Z,31.42
2016-07-27T10:47:46.644Z,31.52
2016-07-27T10:48:46.656Z,31.47
2016-07-27T10:49:46.648Z,31.52
2016-07-27T10:50:46.652Z,31.42
2016-07-27T10:51:45.725Z,31.45
2016-07-27T10:52:46.655Z,31.36
2016-07-27T10:53:46.656Z,31.32
2016-07-27T10:54:46.668Z,31.18
2016-07-27T10:55:46.655Z,31.18
2016-07-27T10:56:46.664Z,31.26
2016-07-27T10:57:46.663Z,31.18
2016-07-27T10:58:46.673Z,31.2
2016-07-27T10:59:46.671Z,31.26
2016-07-27T11:00:46.672Z,31.04
2016-07-27T11:01:46.683Z,30.93
2016-07-27T11:02:46.676Z,30.93
2016-07-27T11:03:46.684Z,30.89
2016-07-27T11:04:46.680Z,30.96
2016-07-27T11:05:46.684Z,30.98
2016-07-27T11:06:46.709Z,31.04
2016-07-27T11:07:46.688Z,31.13
2016-07-27T11:08:46.692Z,31.22
2016-07-27T11:09:46.692Z,31.2
2016-07-27T11:10:46.697Z,31.15
2016-07-27T11:11:46.700Z,31.25
2016-07-27T11:12:46.701Z,31.32
2016-07-27T11:13:46.705Z,31.48
2016-07-27T11:14:46.713Z,31.51
2016-07-27T11:15:46.714Z,31.55
2016-07-27T11:16:46.709Z,31.64
2016-07-27T11:17:46.721Z,31.66
2016-07-27T11:18:46.717Z,31.67
2016-07-27T11:19:46.717Z,31.74
2016-07-27T11:20:46.721Z,31.87
2016-07-27T11:21:46.725Z,31.74
2016-07-27T11:22:46.725Z,31.64
2016-07-27T11:23:46.732Z,31.6
2016-07-27T11:24:46.733Z,31.44
2016-07-27T11:25:46.733Z,31.28
2016-07-27T11:26:46.737Z,31.32
2016-07-27T11:27:46.737Z,31.35
2016-07-27T11:28:46.741Z,31.35
2016-07-27T11:29:46.746Z,31.35
2016-07-27T11:30:46.745Z,31.32
2016-07-27T11:31:46.749Z,31.26
2016-07-27T11:32:46.749Z,31.26
2016-07-27T11:33:46.034Z,31.39
2016-07-27T11:34:46.769Z,31.48
2016-07-27T11:35:46.753Z,31.63
2016-07-27T11:36:46.762Z,31.51
2016-07-27T11:37:46.766Z,31.51
2016-07-27T11:38:46.770Z,31.67
2016-07-27T11:39:46.778Z,31.67
2016-07-27T11:40:46.769Z,31.77
2016-07-27T11:41:46.773Z,31.81
2016-07-27T11:42:46.774Z,31.95
2016-07-27T11:43:46.778Z,32.08
2016-07-27T11:44:46.782Z,32.12
2016-07-27T11:45:46.882Z,32.05
2016-07-27T11:46:46.787Z,31.66
2016-07-27T11:47:46.790Z,31.05
2016-07-27T11:48:46.790Z,30.26
2016-07-27T11:49:46.802Z,29.55
2016-07-27T11:50:46.794Z,29.03
2016-07-27T11:51:47.050Z,28.38
2016-07-27T11:52:46.803Z,27.86
2016-07-27T11:53:46.798Z,27.35
2016-07-27T11:54:46.807Z,27.03
2016-07-27T11:55:46.807Z,26.78
2016-07-27T11:56:46.810Z,26.46
2016-07-27T11:57:46.818Z,26.1
2016-07-27T11:58:46.815Z,25.95
2016-07-27T11:59:46.823Z,25.76
2016-07-27T12:00:46.822Z,25.7
2016-07-27T12:01:46.836Z,25.56
2016-07-27T12:02:46.827Z,25.46
2016-07-27T12:03:46.826Z,25.36
2016-07-27T12:04:46.831Z,25.36
2016-07-27T12:05:46.843Z,25.37
2016-07-27T12:06:46.834Z,25.43
2016-07-27T12:07:46.840Z,25.59
2016-07-27T12:08:46.843Z,25.58
2016-07-27T12:09:46.843Z,25.68
2016-07-27T12:10:46.847Z,25.85
2016-07-27T12:11:46.847Z,26.06
2016-07-27T12:12:46.851Z,26.15
2016-07-27T12:13:46.855Z,26.13
2016-07-27T12:14:46.855Z,26.31
2016-07-27T12:15:46.859Z,26.36
2016-07-27T12:16:46.863Z,26.55
2016-07-27T12:17:46.863Z,26.64
2016-07-27T12:18:46.868Z,26.96
2016-07-27T12:19:46.867Z,26.98
2016-07-27T12:20:46.871Z,27.1
2016-07-27T12:21:46.871Z,27.22
2016-07-27T12:22:46.888Z,27.29
2016-07-27T12:23:46.879Z,27.43
2016-07-27T12:24:46.892Z,27.48
2016-07-27T12:25:46.883Z,27.58
2016-07-27T12:26:46.888Z,27.68
2016-07-27T12:27:46.887Z,27.82
2016-07-27T12:28:46.892Z,27.85
2016-07-27T12:29:46.892Z,27.82
2016-07-27T12:30:46.896Z,27.95
2016-07-27T12:31:46.901Z,27.97
2016-07-27T12:32:46.900Z,28.03
2016-07-27T12:33:46.904Z,28.06
2016-07-27T12:34:46.909Z,28.12
2016-07-27T12:35:46.908Z,28.2
2016-07-27T12:36:46.912Z,28.15
2016-07-27T12:37:46.913Z,28.3
2016-07-27T12:38:46.916Z,28.2
2016-07-27T12:39:46.921Z,28.3
2016-07-27T12:40:46.916Z,28.27
2016-07-27T12:41:46.936Z,28.25
2016-07-27T12:42:46.928Z,28.28
2016-07-27T12:43:47.232Z,28.3
2016-07-27T12:44:46.937Z,28.13
2016-07-27T12:45:46.988Z,28.12
2016-07-27T12:46:46.945Z,28.09
2016-07-27T12:47:46.937Z,28.09
2016-07-27T12:48:46.941Z,28.08
2016-07-27T12:49:46.949Z,28.15
2016-07-27T12:50:46.951Z,28.18
2016-07-27T12:51:46.949Z,28.13
2016-07-27T12:52:46.957Z,28.28
2016-07-27T12:53:46.952Z,28.3
2016-07-27T12:54:46.957Z,28.3
2016-07-27T12:55:46.956Z,28.35
2016-07-27T12:56:46.961Z,28.33